Time;durP1;ratioP1;P1;durP2;ratioP2;P2;SDS_P1;SDS_P2;PMS_P1;PMS_P2;Temp;Humidity;BMP_temperature;BMP_pressure;BME280_temperature;BME280_humidity;BME280_pressure;Samples;Min_cycle;Max_cycle;Signal;HPM_P1;HPM_P2
2020/12/01 00:01:16;;;;;;;21.83;3.80;;;;;;;;;;5006954;28;20114;-74
2020/12/01 00:03:42;;;;;;;24.02;4.05;;;;;;;;;;5007859;28;20109;-74
2020/12/01 00:06:08;;;;;;;23.67;3.30;;;;;;;;;;5021551;28;20811;-74
2020/12/01 00:08:35;;;;;;;28.05;3.20;;;;;;;;;;4999654;28;20030;-74
2020/12/01 00:11:01;;;;;;;30.98;3.55;;;;;;;;;;5002325;28;20041;-74
2020/12/01 00:13:27;;;;;;;19.08;3.55;;;;;;;;;;5008191;28;20037;-74
2020/12/01 00:15:53;;;;;;;27.95;5.55;;;;;;;;;;5007922;28;20033;-74
2020/12/01 00:18:19;;;;;;;30.08;4.55;;;;;;;;;;5007138;28;20088;-74
2020/12/01 00:20:45;;;;;;;25.92;4.28;;;;;;;;;;5007281;28;20065;-74
2020/12/01 00:23:11;;;;;;;26.02;4.15;;;;;;;;;;4993449;28;20030;-74
2020/12/01 00:25:37;;;;;;;39.97;5.60;;;;;;;;;;5006027;28;20030;-74
2020/12/01 00:28:03;;;;;;;22.83;3.88;;;;;;;;;;5007860;28;20084;-74
2020/12/01 00:30:29;;;;;;;34.92;6.00;;;;;;;;;;5010148;28;20112;-74
2020/12/01 00:32:55;;;;;;;30.42;4.38;;;;;;;;;;5010890;28;20479;-74
2020/12/01 00:35:24;;;;;;;27.33;3.83;;;;;;;;;;5010701;28;20091;-74
2020/12/01 00:37:50;;;;;;;27.17;4.13;;;;;;;;;;5011173;28;20037;-74
2020/12/01 00:40:17;;;;;;;27.27;3.55;;;;;;;;;;5024466;28;20042;-74
2020/12/01 00:42:43;;;;;;;31.77;5.43;;;;;;;;;;5010534;28;20475;-74
2020/12/01 00:45:10;;;;;;;26.65;3.63;;;;;;;;;;5011407;28;20104;-74
2020/12/01 00:47:36;;;;;;;27.65;3.53;;;;;;;;;;4994788;28;20026;-74
2020/12/01 00:50:02;;;;;;;21.60;3.30;;;;;;;;;;5010658;28;20053;-74
2020/12/01 00:52:28;;;;;;;20.83;2.90;;;;;;;;;;5024121;28;20030;-74
2020/12/01 00:54:54;;;;;;;25.40;2.83;;;;;;;;;;5021314;28;20447;-74
2020/12/01 00:57:20;;;;;;;28.83;3.17;;;;;;;;;;4999410;28;20030;-74
2020/12/01 00:59:46;;;;;;;31.33;5.18;;;;;;;;;;5009365;28;20505;-74
2020/12/01 01:02:12;;;;;;;22.90;2.90;;;;;;;;;;4997842;28;20030;-74
2020/12/01 01:04:37;;;;;;;29.70;4.85;;;;;;;;;;5005790;28;20022;-74
2020/12/01 01:07:03;;;;;;;18.00;2.72;;;;;;;;;;5010848;28;20026;-74
2020/12/01 01:09:29;;;;;;;20.45;2.67;;;;;;;;;;5008909;28;20491;-74
2020/12/01 01:11:55;;;;;;;22.58;2.50;;;;;;;;;;5009967;28;20061;-74
2020/12/01 01:14:21;;;;;;;20.58;2.67;;;;;;;;;;5010463;28;20041;-74
2020/12/01 01:16:47;;;;;;;14.88;2.85;;;;;;;;;;5009670;28;20030;-74
2020/12/01 01:19:14;;;;;;;15.15;2.10;;;;;;;;;;5019769;28;20132;-74
2020/12/01 01:21:41;;;;;;;19.52;2.03;;;;;;;;;;5010586;28;20030;-74
2020/12/01 01:24:07;;;;;;;22.38;2.50;;;;;;;;;;4998962;28;20030;-74
2020/12/01 01:26:33;;;;;;;20.92;2.63;;;;;;;;;;4994702;28;20026;-75
2020/12/01 01:28:59;;;;;;;21.13;3.35;;;;;;;;;;4996720;28;20064;-74
2020/12/01 01:31:25;;;;;;;19.17;3.22;;;;;;;;;;5009855;28;20539;-74
2020/12/01 01:33:51;;;;;;;26.23;5.95;;;;;;;;;;5010047;28;20107;-74
2020/12/01 01:36:17;;;;;;;21.52;3.55;;;;;;;;;;4995614;28;20504;-74
2020/12/01 01:38:43;;;;;;;24.67;2.75;;;;;;;;;;5009049;28;20037;-74
2020/12/01 01:41:09;;;;;;;16.95;2.95;;;;;;;;;;5008867;28;20038;-74
2020/12/01 01:43:35;;;;;;;17.08;2.30;;;;;;;;;;5007256;28;20030;-74
2020/12/01 01:46:01;;;;;;;23.73;3.50;;;;;;;;;;5006438;28;20113;-74
2020/12/01 01:48:33;;;;;;;13.25;2.30;;;;;;;;;;5009832;28;20033;-74
2020/12/01 01:51:15;;;;;;;8.70;1.50;;;;;;;;;;5012113;28;20478;-74
2020/12/01 01:53:43;;;;;;;9.32;1.35;;;;;;;;;;5018515;28;20111;-74
2020/12/01 01:56:10;;;;;;;11.25;1.75;;;;;;;;;;5008343;28;20022;-74
2020/12/01 01:58:37;;;;;;;15.00;1.77;;;;;;;;;;5008257;28;20045;-74
2020/12/01 02:01:24;;;;;;;11.43;1.92;;;;;;;;;;5011119;28;20092;-74
2020/12/01 02:03:51;;;;;;;13.82;2.00;;;;;;;;;;5017022;28;20026;-74
2020/12/01 02:06:29;;;;;;;11.52;2.17;;;;;;;;;;5023113;28;20026;-74
2020/12/01 02:09:03;;;;;;;13.07;1.70;;;;;;;;;;5009440;28;20026;-74
2020/12/01 02:11:30;;;;;;;22.25;2.72;;;;;;;;;;5007655;28;20032;-74
2020/12/01 02:14:02;;;;;;;13.80;2.42;;;;;;;;;;5008375;28;20584;-74
2020/12/01 02:16:28;;;;;;;15.38;1.92;;;;;;;;;;4993735;28;20141;-74
2020/12/01 02:18:54;;;;;;;21.95;3.25;;;;;;;;;;5009356;28;20117;-74
2020/12/01 02:21:25;;;;;;;13.55;1.80;;;;;;;;;;5008309;28;20046;-74
2020/12/01 02:23:51;;;;;;;12.85;2.33;;;;;;;;;;5001395;28;20042;-74
2020/12/01 02:26:17;;;;;;;15.15;3.08;;;;;;;;;;5001844;28;20454;-74
2020/12/01 02:28:43;;;;;;;11.57;3.00;;;;;;;;;;5007308;28;20030;-74
2020/12/01 02:31:09;;;;;;;26.63;2.80;;;;;;;;;;5009509;28;20490;-74
2020/12/01 02:33:35;;;;;;;23.73;3.83;;;;;;;;;;5003012;28;20037;-75
2020/12/01 02:36:01;;;;;;;22.25;3.78;;;;;;;;;;5000770;28;20038;-74
2020/12/01 02:38:27;;;;;;;21.30;2.50;;;;;;;;;;5008671;28;20026;-75
2020/12/01 02:40:53;;;;;;;22.23;3.00;;;;;;;;;;5009176;28;20038;-74
2020/12/01 02:43:18;;;;;;;15.57;1.77;;;;;;;;;;5008287;28;20364;-75
2020/12/01 02:45:44;;;;;;;13.52;2.70;;;;;;;;;;5010846;28;20022;-74
2020/12/01 02:48:10;;;;;;;12.70;2.47;;;;;;;;;;5008989;28;20441;-74
2020/12/01 02:50:36;;;;;;;20.33;2.35;;;;;;;;;;5007954;28;20555;-74
2020/12/01 02:53:03;;;;;;;17.40;2.97;;;;;;;;;;5008311;28;20065;-74
2020/12/01 02:55:29;;;;;;;17.23;1.92;;;;;;;;;;5001478;28;20084;-74
2020/12/01 02:57:54;;;;;;;16.95;2.25;;;;;;;;;;5006707;28;20264;-74
2020/12/01 03:00:20;;;;;;;16.50;1.90;;;;;;;;;;5008660;28;20038;-74
2020/12/01 03:02:46;;;;;;;15.43;1.30;;;;;;;;;;5013995;23;20828;-75
2020/12/01 03:05:12;;;;;;;14.93;1.73;;;;;;;;;;5001485;28;20069;-74
2020/12/01 03:07:38;;;;;;;11.85;2.35;;;;;;;;;;5000724;28;20368;-76
2020/12/01 03:10:07;;;;;;;12.60;2.33;;;;;;;;;;5012149;28;20058;-74
2020/12/01 03:12:33;;;;;;;10.10;1.42;;;;;;;;;;5014190;28;20060;-75
2020/12/01 03:15:01;;;;;;;8.60;1.60;;;;;;;;;;5007794;28;20473;-74
2020/12/01 03:17:26;;;;;;;15.93;2.22;;;;;;;;;;5006749;28;20117;-74
2020/12/01 03:19:52;;;;;;;17.33;1.83;;;;;;;;;;5007476;28;20101;-75
2020/12/01 03:22:18;;;;;;;20.95;2.85;;;;;;;;;;5008043;28;20140;-74
2020/12/01 03:24:44;;;;;;;15.20;2.08;;;;;;;;;;5006388;28;20100;-74
2020/12/01 03:27:10;;;;;;;17.80;2.55;;;;;;;;;;5008095;28;20030;-75
2020/12/01 03:29:36;;;;;;;10.68;1.67;;;;;;;;;;5007785;28;20475;-74
2020/12/01 03:32:02;;;;;;;12.82;2.28;;;;;;;;;;5008417;28;20033;-75
2020/12/01 03:34:28;;;;;;;10.85;1.38;;;;;;;;;;5008238;28;20033;-74
2020/12/01 03:36:55;;;;;;;15.57;1.75;;;;;;;;;;5007751;28;20109;-74
2020/12/01 03:39:20;;;;;;;7.57;1.50;;;;;;;;;;5014007;28;20087;-74
2020/12/01 03:41:46;;;;;;;15.75;1.60;;;;;;;;;;5007601;28;20035;-74
2020/12/01 03:44:12;;;;;;;15.30;1.90;;;;;;;;;;5007788;28;20033;-74
2020/12/01 03:46:38;;;;;;;22.15;3.65;;;;;;;;;;5021645;28;20030;-74
2020/12/01 03:49:04;;;;;;;25.48;3.75;;;;;;;;;;5008028;28;20030;-74
2020/12/01 03:51:30;;;;;;;28.13;2.67;;;;;;;;;;5007770;28;20105;-75
2020/12/01 03:53:56;;;;;;;26.90;4.13;;;;;;;;;;5017618;28;20057;-74
2020/12/01 03:56:22;;;;;;;30.02;5.32;;;;;;;;;;5013563;28;20403;-74
2020/12/01 03:58:48;;;;;;;31.77;4.22;;;;;;;;;;5016758;28;20030;-74
2020/12/01 04:01:14;;;;;;;31.00;4.43;;;;;;;;;;5009099;28;20077;-74
2020/12/01 04:03:40;;;;;;;35.58;5.63;;;;;;;;;;4997435;28;20145;-75
2020/12/01 04:06:06;;;;;;;23.35;4.57;;;;;;;;;;5012441;28;20689;-74
2020/12/01 04:08:32;;;;;;;34.55;7.47;;;;;;;;;;5010171;28;20485;-75
2020/12/01 04:11:01;;;;;;;41.53;4.55;;;;;;;;;;5019901;28;20025;-74
2020/12/01 04:13:27;;;;;;;30.52;4.75;;;;;;;;;;5013892;28;20029;-75
2020/12/01 04:15:53;;;;;;;35.03;5.95;;;;;;;;;;5010379;28;20034;-74
2020/12/01 04:18:18;;;;;;;35.50;5.22;;;;;;;;;;5009645;28;20043;-74
2020/12/01 04:20:44;;;;;;;36.67;4.45;;;;;;;;;;5010728;28;20029;-74
2020/12/01 04:23:10;;;;;;;35.10;5.25;;;;;;;;;;5011211;28;20075;-74
2020/12/01 04:25:36;;;;;;;24.85;3.78;;;;;;;;;;5011280;28;20026;-74
2020/12/01 04:28:05;;;;;;;27.20;3.72;;;;;;;;;;5011362;28;20030;-75
2020/12/01 04:30:31;;;;;;;28.75;4.32;;;;;;;;;;5011970;28;20113;-74
2020/12/01 04:32:58;;;;;;;30.83;4.38;;;;;;;;;;5025684;28;20471;-75
2020/12/01 04:35:24;;;;;;;27.33;4.47;;;;;;;;;;5011433;28;20026;-74
2020/12/01 04:37:50;;;;;;;21.65;4.43;;;;;;;;;;5025971;28;20096;-74
2020/12/01 04:40:19;;;;;;;31.40;4.30;;;;;;;;;;5017736;28;20045;-74
2020/12/01 04:42:49;;;;;;;23.15;3.63;;;;;;;;;;5006246;28;20539;-74
2020/12/01 04:45:15;;;;;;;26.27;4.33;;;;;;;;;;5014249;28;20032;-75
2020/12/01 04:48:00;;;;;;;16.75;3.55;;;;;;;;;;5010466;28;20589;-74
2020/12/01 04:50:31;;;;;;;19.67;3.17;;;;;;;;;;5009490;28;20033;-74
2020/12/01 04:53:07;;;;;;;24.00;3.70;;;;;;;;;;5025427;28;20026;-74
2020/12/01 04:55:42;;;;;;;30.77;3.80;;;;;;;;;;5010766;28;20053;-75
2020/12/01 04:58:23;;;;;;;30.00;3.88;;;;;;;;;;5008876;28;20559;-74
2020/12/01 05:00:57;;;;;;;29.45;4.13;;;;;;;;;;5009176;28;20045;-74
2020/12/01 05:03:40;;;;;;;28.08;4.13;;;;;;;;;;5009092;28;20520;-74
2020/12/01 05:06:38;;;;;;;23.20;3.90;;;;;;;;;;5009113;28;20037;-74
2020/12/01 05:09:09;;;;;;;19.55;3.55;;;;;;;;;;5016966;28;20026;-75
2020/12/01 05:11:39;;;;;;;30.50;3.80;;;;;;;;;;5010273;28;20030;-74
2020/12/01 05:14:26;;;;;;;32.55;4.30;;;;;;;;;;5002810;28;20456;-74
2020/12/01 05:17:02;;;;;;;26.65;3.53;;;;;;;;;;5009158;28;20033;-73
2020/12/01 05:19:38;;;;;;;30.25;4.95;;;;;;;;;;5010272;28;20037;-74
2020/12/01 05:22:04;;;;;;;25.77;4.28;;;;;;;;;;4997008;28;20395;-74
2020/12/01 05:24:43;;;;;;;20.50;3.72;;;;;;;;;;5010104;28;20479;-74
2020/12/01 05:27:20;;;;;;;21.95;2.80;;;;;;;;;;5010282;28;20133;-75
2020/12/01 05:29:52;;;;;;;31.73;4.97;;;;;;;;;;4997821;28;20018;-74
2020/12/01 05:32:25;;;;;;;18.88;3.13;;;;;;;;;;5025018;28;20079;-74
2020/12/01 05:34:51;;;;;;;22.20;3.33;;;;;;;;;;4996912;28;20475;-74
2020/12/01 05:37:17;;;;;;;27.80;3.40;;;;;;;;;;5008774;28;20033;-74
2020/12/01 05:39:45;;;;;;;18.13;4.03;;;;;;;;;;5008199;28;20026;-76
2020/12/01 05:42:18;;;;;;;27.70;3.92;;;;;;;;;;5009965;28;20025;-74
2020/12/01 05:44:54;;;;;;;18.30;3.97;;;;;;;;;;5024794;28;20026;-75
2020/12/01 05:47:22;;;;;;;21.25;4.38;;;;;;;;;;5009492;28;20034;-72
2020/12/01 05:50:04;;;;;;;24.42;4.50;;;;;;;;;;5009759;28;20030;-73
2020/12/01 05:52:32;;;;;;;27.88;4.57;;;;;;;;;;5007510;28;20110;-74
2020/12/01 05:55:03;;;;;;;32.50;3.95;;;;;;;;;;5012945;28;20099;-74
2020/12/01 05:57:29;;;;;;;25.42;3.33;;;;;;;;;;5021168;28;20044;-74
2020/12/01 05:59:57;;;;;;;18.85;3.17;;;;;;;;;;5009343;28;20017;-74
2020/12/01 06:02:27;;;;;;;17.80;3.88;;;;;;;;;;5009560;28;20517;-75
2020/12/01 06:04:53;;;;;;;30.75;3.45;;;;;;;;;;5008018;28;20049;-75
2020/12/01 06:07:25;;;;;;;23.65;4.03;;;;;;;;;;5008070;28;20026;-75
2020/12/01 06:09:56;;;;;;;26.63;3.65;;;;;;;;;;5009513;28;20022;-75
2020/12/01 06:12:37;;;;;;;30.02;4.00;;;;;;;;;;5009291;28;20467;-75
2020/12/01 06:15:11;;;;;;;39.00;6.07;;;;;;;;;;5008403;28;20030;-75
2020/12/01 06:17:56;;;;;;;24.52;5.05;;;;;;;;;;5009756;28;20531;-75
2020/12/01 06:20:37;;;;;;;33.97;5.32;;;;;;;;;;5008909;28;20164;-75
2020/12/01 06:23:21;;;;;;;36.15;6.05;;;;;;;;;;4997150;28;20030;-75
2020/12/01 06:26:26;;;;;;;20.88;4.70;;;;;;;;;;5007993;28;20554;-75
2020/12/01 06:29:10;;;;;;;27.00;5.20;;;;;;;;;;4958340;28;20061;-75
2020/12/01 06:31:41;;;;;;;25.08;4.03;;;;;;;;;;4967132;28;20034;-75
2020/12/01 06:34:20;;;;;;;29.02;5.15;;;;;;;;;;4983099;28;20060;-75
2020/12/01 06:37:15;;;;;;;34.03;4.30;;;;;;;;;;5019551;28;20057;-75
2020/12/01 06:39:46;;;;;;;35.40;4.78;;;;;;;;;;5012517;28;20041;-75
2020/12/01 06:42:24;;;;;;;28.13;4.72;;;;;;;;;;5009179;28;20030;-75
2020/12/01 06:44:54;;;;;;;34.65;5.68;;;;;;;;;;5015074;28;20018;-74
2020/12/01 06:47:24;;;;;;;35.35;5.05;;;;;;;;;;5014970;28;20032;-74
2020/12/01 06:49:54;;;;;;;33.40;5.50;;;;;;;;;;4996410;28;20048;-73
2020/12/01 06:52:20;;;;;;;35.88;5.47;;;;;;;;;;5008943;28;20049;-74
2020/12/01 06:54:50;;;;;;;31.52;4.53;;;;;;;;;;5008258;28;20442;-73
2020/12/01 06:57:24;;;;;;;34.35;6.13;;;;;;;;;;5009016;28;20021;-73
2020/12/01 06:59:50;;;;;;;33.42;6.50;;;;;;;;;;5006138;28;20084;-74
2020/12/01 07:02:22;;;;;;;27.92;4.28;;;;;;;;;;5008269;28;20030;-73
2020/12/01 07:04:48;;;;;;;26.63;4.70;;;;;;;;;;5008618;28;20093;-74
2020/12/01 07:07:30;;;;;;;32.13;4.47;;;;;;;;;;5007113;28;20391;-73
2020/12/01 07:09:57;;;;;;;30.10;4.57;;;;;;;;;;4998110;28;20080;-73
2020/12/01 07:12:26;;;;;;;25.80;3.45;;;;;;;;;;5008949;28;20049;-73
2020/12/01 07:14:55;;;;;;;22.92;4.18;;;;;;;;;;5007372;28;20038;-73
2020/12/01 07:17:21;;;;;;;33.45;4.00;;;;;;;;;;5008289;28;20030;-74
2020/12/01 07:19:55;;;;;;;23.30;4.05;;;;;;;;;;5007811;28;20046;-74
2020/12/01 07:22:23;;;;;;;28.27;4.40;;;;;;;;;;5004061;28;20134;-73
2020/12/01 07:24:54;;;;;;;21.90;3.85;;;;;;;;;;5003971;28;20117;-74
2020/12/01 07:27:27;;;;;;;22.00;4.32;;;;;;;;;;5017431;28;20070;-74
2020/12/01 07:30:05;;;;;;;23.88;4.28;;;;;;;;;;5008598;28;20093;-74
2020/12/01 07:32:42;;;;;;;26.52;5.18;;;;;;;;;;5022661;28;20789;-73
2020/12/01 07:35:17;;;;;;;19.98;3.70;;;;;;;;;;5007071;28;20026;-74
2020/12/01 07:38:04;;;;;;;38.55;5.00;;;;;;;;;;5011574;28;20061;-74
2020/12/01 07:40:43;;;;;;;28.08;4.53;;;;;;;;;;5009562;28;20037;-73
2020/12/01 07:43:11;;;;;;;32.85;5.65;;;;;;;;;;5029911;28;20026;-73
2020/12/01 07:45:37;;;;;;;25.67;5.07;;;;;;;;;;5005287;28;20077;-73
2020/12/01 07:48:03;;;;;;;19.73;4.15;;;;;;;;;;5011388;28;20022;-73
2020/12/01 07:50:30;;;;;;;33.58;4.70;;;;;;;;;;5012405;28;20796;-73
2020/12/01 07:53:01;;;;;;;31.70;5.97;;;;;;;;;;5010352;28;20052;-73
2020/12/01 07:55:33;;;;;;;33.75;4.47;;;;;;;;;;5017487;28;20079;-73
2020/12/01 07:58:00;;;;;;;28.02;4.78;;;;;;;;;;5011568;28;20061;-75
2020/12/01 08:00:27;;;;;;;29.35;4.57;;;;;;;;;;5010112;28;20542;-73
2020/12/01 08:03:00;;;;;;;31.60;5.47;;;;;;;;;;5011479;28;20109;-72
2020/12/01 08:05:26;;;;;;;35.10;6.97;;;;;;;;;;4998993;28;20503;-72
2020/12/01 08:07:56;;;;;;;32.10;5.50;;;;;;;;;;5007611;28;20048;-72
2020/12/01 08:10:23;;;;;;;30.58;4.68;;;;;;;;;;5018934;28;20038;-72
2020/12/01 08:12:50;;;;;;;30.55;5.00;;;;;;;;;;5011175;28;20034;-72
2020/12/01 08:15:17;;;;;;;26.40;5.68;;;;;;;;;;5011211;28;20053;-73
2020/12/01 08:17:43;;;;;;;24.95;4.07;;;;;;;;;;5011246;28;20080;-73
2020/12/01 08:20:12;;;;;;;27.65;4.93;;;;;;;;;;5011413;28;20049;-73
2020/12/01 08:22:39;;;;;;;28.50;4.60;;;;;;;;;;4996853;28;20494;-74
2020/12/01 08:25:13;;;;;;;28.30;4.15;;;;;;;;;;5022043;28;20025;-72
2020/12/01 08:27:43;;;;;;;25.95;5.47;;;;;;;;;;5013702;28;20064;-72
2020/12/01 08:30:18;;;;;;;31.23;5.13;;;;;;;;;;5011515;28;20037;-72
2020/12/01 08:32:46;;;;;;;30.48;5.13;;;;;;;;;;5010479;28;20037;-72
2020/12/01 08:35:21;;;;;;;24.48;5.40;;;;;;;;;;5011101;28;20085;-72
2020/12/01 08:37:47;;;;;;;37.05;4.35;;;;;;;;;;5008438;28;20069;-72
2020/12/01 08:40:22;;;;;;;34.08;5.20;;;;;;;;;;5015036;28;20030;-72
2020/12/01 08:42:54;;;;;;;33.70;5.95;;;;;;;;;;5010758;28;20147;-72
2020/12/01 08:45:26;;;;;;;25.83;4.82;;;;;;;;;;5023303;28;20055;-73
2020/12/01 08:47:57;;;;;;;25.60;4.68;;;;;;;;;;5011099;28;20018;-72
2020/12/01 08:50:25;;;;;;;25.65;4.13;;;;;;;;;;5011115;28;20042;-72
2020/12/01 08:53:02;;;;;;;19.33;3.78;;;;;;;;;;5010494;28;20041;-72
2020/12/01 08:55:31;;;;;;;21.38;4.25;;;;;;;;;;5018832;28;20363;-72
2020/12/01 08:58:07;;;;;;;24.65;4.38;;;;;;;;;;5018934;28;20053;-74
2020/12/01 09:00:34;;;;;;;21.27;3.55;;;;;;;;;;5010848;28;20491;-73
2020/12/01 09:03:06;;;;;;;24.55;3.85;;;;;;;;;;5010578;28;20080;-74
2020/12/01 09:05:34;;;;;;;20.85;4.03;;;;;;;;;;5044709;23;20724;-71
2020/12/01 09:11:18;;;;;;;21.50;3.30;;;;;;;;;;5029980;28;20041;-72
2020/12/01 09:14:02;;;;;;;20.20;3.20;;;;;;;;;;5017568;28;20493;-72
2020/12/01 09:16:39;;;;;;;20.08;3.83;;;;;;;;;;5011700;28;20029;-71
2020/12/01 09:19:24;;;;;;;28.58;4.53;;;;;;;;;;5027301;28;20109;-71
2020/12/01 09:21:52;;;;;;;20.85;3.85;;;;;;;;;;5010605;28;20112;-71
2020/12/01 09:24:20;;;;;;;24.55;4.65;;;;;;;;;;5025389;28;20089;-72
2020/12/01 09:26:46;;;;;;;20.17;3.67;;;;;;;;;;5020598;28;20029;-71
2020/12/01 09:29:12;;;;;;;20.55;3.63;;;;;;;;;;5009676;28;20030;-71
2020/12/01 09:31:39;;;;;;;20.02;3.65;;;;;;;;;;5010573;28;20109;-74
2020/12/01 09:34:05;;;;;;;24.27;3.55;;;;;;;;;;5024146;28;20039;-75
2020/12/01 09:36:30;;;;;;;24.85;3.90;;;;;;;;;;5008747;28;20030;-72
2020/12/01 09:38:56;;;;;;;24.20;4.80;;;;;;;;;;5010121;28;20044;-72
2020/12/01 09:41:24;;;;;;;30.70;5.28;;;;;;;;;;5008307;28;20034;-72
2020/12/01 09:46:28;;;;;;;29.98;4.32;;;;;;;;;;5017984;28;20041;-72
2020/12/01 09:48:54;;;;;;;21.65;4.35;;;;;;;;;;5001797;28;20038;-73
2020/12/01 09:51:20;;;;;;;31.95;5.05;;;;;;;;;;5015086;28;20508;-72
2020/12/01 09:54:08;;;;;;;33.25;4.13;;;;;;;;;;5021765;28;20029;-72
2020/12/01 09:56:56;;;;;;;23.58;5.47;;;;;;;;;;4998821;28;20040;-72
2020/12/01 10:15:36;;;;;;;27.70;4.45;;;;;;;;;;5007870;28;20104;-72
2020/12/01 10:36:55;;;;;;;25.65;3.85;;;;;;;;;;5017399;28;20066;-73
2020/12/01 10:39:21;;;;;;;21.02;4.15;;;;;;;;;;5008667;28;20056;-71
2020/12/01 10:41:47;;;;;;;20.15;3.58;;;;;;;;;;5009157;28;20090;-73
2020/12/01 10:44:13;;;;;;;26.48;4.28;;;;;;;;;;5009041;28;20049;-71
2020/12/01 10:46:39;;;;;;;22.48;3.53;;;;;;;;;;5007237;28;20048;-73
2020/12/01 10:49:06;;;;;;;23.73;4.20;;;;;;;;;;5007737;28;20550;-74
2020/12/01 10:51:35;;;;;;;21.48;4.22;;;;;;;;;;5010653;28;20021;-73
2020/12/01 10:54:01;;;;;;;31.73;5.43;;;;;;;;;;5009991;28;20030;-74
2020/12/01 10:56:26;;;;;;;20.75;3.95;;;;;;;;;;5007777;28;20034;-73
2020/12/01 10:58:53;;;;;;;26.50;4.68;;;;;;;;;;5008506;28;20117;-73
2020/12/01 11:01:18;;;;;;;19.75;3.60;;;;;;;;;;5006837;28;20035;-73
2020/12/01 11:03:44;;;;;;;24.25;4.25;;;;;;;;;;5008351;28;20027;-74
2020/12/01 11:06:10;;;;;;;17.92;3.47;;;;;;;;;;5013607;28;20108;-74
2020/12/01 11:08:36;;;;;;;24.23;3.22;;;;;;;;;;5007755;28;20091;-74
2020/12/01 11:11:02;;;;;;;16.95;3.55;;;;;;;;;;5006417;28;20026;-74
2020/12/01 11:13:28;;;;;;;20.23;3.25;;;;;;;;;;5007468;28;20037;-69
2020/12/01 11:15:55;;;;;;;21.52;4.28;;;;;;;;;;5011113;28;20025;-74
2020/12/01 11:18:21;;;;;;;29.20;4.38;;;;;;;;;;5015549;28;20563;-72
2020/12/01 11:20:47;;;;;;;24.25;3.45;;;;;;;;;;5010353;28;20025;-73
2020/12/01 11:23:13;;;;;;;20.35;4.03;;;;;;;;;;5021737;28;20038;-73
2020/12/01 11:25:39;;;;;;;26.00;5.00;;;;;;;;;;5020585;28;20033;-73
2020/12/01 11:28:05;;;;;;;24.85;4.55;;;;;;;;;;5025279;28;20100;-73
2020/12/01 11:30:31;;;;;;;18.42;3.83;;;;;;;;;;5005629;28;20057;-73
2020/12/01 11:32:57;;;;;;;26.08;4.55;;;;;;;;;;5022801;28;20028;-73
2020/12/01 11:35:24;;;;;;;21.10;4.38;;;;;;;;;;5021501;28;20026;-74
2020/12/01 11:37:50;;;;;;;28.40;4.70;;;;;;;;;;5017219;28;20045;-72
2020/12/01 11:40:16;;;;;;;20.77;3.00;;;;;;;;;;5018012;28;20033;-73
2020/12/01 11:42:42;;;;;;;25.45;4.75;;;;;;;;;;5025240;28;21880;-73
2020/12/01 11:45:09;;;;;;;19.33;2.40;;;;;;;;;;5025615;28;20034;-74
2020/12/01 11:47:35;;;;;;;18.88;3.65;;;;;;;;;;5019423;28;20029;-74
2020/12/01 11:50:01;;;;;;;28.05;4.20;;;;;;;;;;5018811;28;20026;-73
2020/12/01 11:52:27;;;;;;;17.90;3.50;;;;;;;;;;5020052;28;20026;-74
2020/12/01 11:54:53;;;;;;;18.00;2.97;;;;;;;;;;5020716;28;20014;-73
2020/12/01 11:57:19;;;;;;;25.52;5.05;;;;;;;;;;5022740;28;20036;-73
2020/12/01 11:59:45;;;;;;;23.35;3.65;;;;;;;;;;5016602;28;20025;-74
2020/12/01 12:02:11;;;;;;;21.95;3.80;;;;;;;;;;5018668;28;20025;-74
2020/12/01 12:04:36;;;;;;;26.83;3.35;;;;;;;;;;5023872;28;20060;-74
2020/12/01 12:07:03;;;;;;;15.38;2.90;;;;;;;;;;5011668;28;20025;-73
2020/12/01 12:09:28;;;;;;;21.50;3.88;;;;;;;;;;5013241;28;20399;-73
2020/12/01 12:11:55;;;;;;;20.58;2.58;;;;;;;;;;5006216;28;20044;-73
2020/12/01 12:14:20;;;;;;;19.67;4.30;;;;;;;;;;5006392;28;20041;-74
2020/12/01 12:16:46;;;;;;;27.60;4.78;;;;;;;;;;5007235;28;20022;-72
2020/12/01 12:19:12;;;;;;;16.63;3.40;;;;;;;;;;5021177;28;20510;-70
2020/12/01 12:21:38;;;;;;;27.25;4.10;;;;;;;;;;5006192;28;20184;-72
2020/12/01 12:24:04;;;;;;;22.73;3.53;;;;;;;;;;5007700;28;20692;-72
2020/12/01 12:26:30;;;;;;;30.80;4.40;;;;;;;;;;5019033;28;20033;-72
2020/12/01 12:28:56;;;;;;;25.13;4.97;;;;;;;;;;5017568;28;20060;-72
2020/12/01 12:31:22;;;;;;;29.02;3.70;;;;;;;;;;5025037;28;20224;-72
2020/12/01 12:33:48;;;;;;;21.25;4.40;;;;;;;;;;5010948;28;20025;-72
2020/12/01 12:36:14;;;;;;;24.13;3.25;;;;;;;;;;5008645;28;20044;-72
2020/12/01 12:38:40;;;;;;;23.65;3.80;;;;;;;;;;5011159;28;20105;-72
2020/12/01 12:41:06;;;;;;;14.45;3.00;;;;;;;;;;5008351;28;20034;-72
2020/12/01 12:43:32;;;;;;;20.23;3.58;;;;;;;;;;5019291;28;20049;-71
2020/12/01 12:45:58;;;;;;;23.60;3.83;;;;;;;;;;5024057;28;20699;-72
2020/12/01 12:48:26;;;;;;;12.52;2.67;;;;;;;;;;4999896;28;20106;-72
2020/12/01 12:50:52;;;;;;;19.73;3.40;;;;;;;;;;5006967;28;20084;-72
2020/12/01 12:53:23;;;;;;;28.27;3.60;;;;;;;;;;5007661;28;20041;-72
2020/12/01 12:55:49;;;;;;;18.60;3.15;;;;;;;;;;5000107;28;20037;-72
2020/12/01 12:58:15;;;;;;;17.25;2.83;;;;;;;;;;5007629;28;20032;-70
2020/12/01 13:00:41;;;;;;;29.05;3.40;;;;;;;;;;5006586;28;20033;-70
2020/12/01 13:03:07;;;;;;;18.85;4.93;;;;;;;;;;5007146;28;20037;-71
2020/12/01 13:05:33;;;;;;;17.58;3.63;;;;;;;;;;5007042;28;20038;-71
2020/12/01 13:07:59;;;;;;;24.50;4.80;;;;;;;;;;5010743;28;20090;-72
2020/12/01 13:10:25;;;;;;;14.02;3.00;;;;;;;;;;5013617;28;20036;-72
2020/12/01 13:12:51;;;;;;;25.67;3.15;;;;;;;;;;5010435;28;20129;-72
2020/12/01 13:15:18;;;;;;;16.40;3.38;;;;;;;;;;5009907;28;20677;-72
2020/12/01 13:17:45;;;;;;;21.58;3.90;;;;;;;;;;5013142;28;20068;-71
2020/12/01 13:20:17;;;;;;;17.52;3.17;;;;;;;;;;5017226;28;20132;-72
2020/12/01 13:22:43;;;;;;;15.15;2.88;;;;;;;;;;5013068;28;20069;-72
2020/12/01 13:25:09;;;;;;;25.48;3.95;;;;;;;;;;5016109;28;20053;-72
2020/12/01 13:27:35;;;;;;;22.13;4.22;;;;;;;;;;5006604;28;20474;-72
2020/12/01 13:30:01;;;;;;;17.33;3.22;;;;;;;;;;5010993;28;20061;-73
2020/12/01 13:32:27;;;;;;;20.65;3.30;;;;;;;;;;5011151;28;20069;-71
2020/12/01 13:34:53;;;;;;;28.42;3.90;;;;;;;;;;5004871;28;20026;-72
2020/12/01 13:37:19;;;;;;;23.23;5.00;;;;;;;;;;5006486;28;20073;-72
2020/12/01 13:39:45;;;;;;;18.20;3.95;;;;;;;;;;5005621;28;20042;-71
2020/12/01 13:42:11;;;;;;;26.02;4.22;;;;;;;;;;5005506;28;20034;-71
2020/12/01 13:44:37;;;;;;;18.83;3.92;;;;;;;;;;5011561;28;20032;-71
2020/12/01 13:47:03;;;;;;;26.45;4.72;;;;;;;;;;5014750;28;20065;-72
2020/12/01 13:49:29;;;;;;;22.42;3.17;;;;;;;;;;5005541;28;20061;-72
2020/12/01 13:51:55;;;;;;;23.33;4.07;;;;;;;;;;5006672;28;20042;-71
2020/12/01 13:54:21;;;;;;;20.73;3.47;;;;;;;;;;4993761;28;20697;-72
2020/12/01 13:56:48;;;;;;;26.67;3.90;;;;;;;;;;5005905;28;20034;-72
2020/12/01 13:59:14;;;;;;;16.63;3.03;;;;;;;;;;5019307;28;20372;-70
2020/12/01 14:01:40;;;;;;;27.80;3.50;;;;;;;;;;5013288;28;20053;-71
2020/12/01 14:04:06;;;;;;;23.80;4.20;;;;;;;;;;4987261;28;20018;-71
2020/12/01 14:06:33;;;;;;;15.70;3.22;;;;;;;;;;5005858;28;20049;-71
2020/12/01 14:08:59;;;;;;;22.08;3.72;;;;;;;;;;5006444;28;20805;-71
2020/12/01 14:11:25;;;;;;;19.77;2.75;;;;;;;;;;5005608;28;20037;-71
2020/12/01 14:13:51;;;;;;;17.83;3.63;;;;;;;;;;5005566;28;20073;-71
2020/12/01 14:16:18;;;;;;;27.70;5.75;;;;;;;;;;5005416;28;20057;-71
2020/12/01 14:18:44;;;;;;;25.63;5.07;;;;;;;;;;5006264;28;20109;-71
2020/12/01 14:21:10;;;;;;;26.55;4.05;;;;;;;;;;5004602;28;20033;-71
2020/12/01 14:23:36;;;;;;;19.95;4.38;;;;;;;;;;4988577;28;20037;-71
2020/12/01 14:26:03;;;;;;;38.13;4.97;;;;;;;;;;4987659;28;20368;-71
2020/12/01 14:28:29;;;;;;;18.27;4.05;;;;;;;;;;5006127;28;20129;-71
2020/12/01 14:30:55;;;;;;;28.42;4.40;;;;;;;;;;4987086;28;20164;-75
2020/12/01 14:33:21;;;;;;;41.53;6.68;;;;;;;;;;5005800;28;20666;-74
2020/12/01 14:35:48;;;;;;;22.05;3.80;;;;;;;;;;4993653;28;20040;-72
2020/12/01 14:38:14;;;;;;;17.20;3.88;;;;;;;;;;5019878;28;20108;-73
2020/12/01 14:40:40;;;;;;;22.25;4.78;;;;;;;;;;5018179;28;20117;-74
2020/12/01 14:43:07;;;;;;;26.58;6.03;;;;;;;;;;5001564;28;20049;-73
2020/12/01 14:45:34;;;;;;;19.58;3.53;;;;;;;;;;5021518;28;20026;-74
2020/12/01 14:48:06;;;;;;;30.17;4.53;;;;;;;;;;5011750;28;20112;-73
2020/12/01 14:50:49;;;;;;;22.40;3.40;;;;;;;;;;5013724;28;20041;-72
2020/12/01 14:53:28;;;;;;;24.73;4.35;;;;;;;;;;5010315;28;20053;-72
2020/12/01 14:56:00;;;;;;;27.17;5.13;;;;;;;;;;5010604;28;20030;-73
2020/12/01 14:58:45;;;;;;;27.65;4.00;;;;;;;;;;4979222;28;20113;-72
2020/12/01 15:01:30;;;;;;;25.08;6.50;;;;;;;;;;5012349;28;20076;-73
2020/12/01 15:04:02;;;;;;;19.98;3.05;;;;;;;;;;5010822;28;20569;-72
2020/12/01 15:06:43;;;;;;;24.77;4.00;;;;;;;;;;4980707;28;20060;-71
2020/12/01 15:09:32;;;;;;;21.45;3.17;;;;;;;;;;4987785;28;20030;-73
2020/12/01 15:12:27;;;;;;;22.23;3.53;;;;;;;;;;5009059;28;20030;-73
2020/12/01 15:14:53;;;;;;;20.70;3.42;;;;;;;;;;5014162;28;20104;-72
2020/12/01 15:17:21;;;;;;;24.63;4.25;;;;;;;;;;4994869;28;20060;-72
2020/12/01 15:19:47;;;;;;;20.65;3.85;;;;;;;;;;4998409;28;20371;-72
2020/12/01 15:22:43;;;;;;;22.30;4.05;;;;;;;;;;5016910;28;20105;-72